sensor_id;sensor_type;location;lat;lon;timestamp;P1;durP1;ratioP1;P2;durP2;ratioP2
55758;SDS011;41678;52.126;20.664;2023-07-31T00:04:00;4.80;;;1.80;;
55758;SDS011;41678;52.126;20.664;2023-07-31T00:09:20;6.53;;;1.67;;
55758;SDS011;41678;52.126;20.664;2023-07-31T00:14:39;6.88;;;1.77;;
55758;SDS011;41678;52.126;20.664;2023-07-31T00:19:59;4.95;;;1.35;;
55758;SDS011;41678;52.126;20.664;2023-07-31T00:25:18;4.47;;;1.65;;
55758;SDS011;41678;52.126;20.664;2023-07-31T00:30:37;3.92;;;1.40;;
55758;SDS011;41678;52.126;20.664;2023-07-31T00:35:57;5.55;;;1.48;;
55758;SDS011;41678;52.126;20.664;2023-07-31T00:41:19;4.18;;;1.63;;
55758;SDS011;41678;52.126;20.664;2023-07-31T00:46:38;6.55;;;1.73;;
55758;SDS011;41678;52.126;20.664;2023-07-31T00:51:58;6.60;;;1.77;;
55758;SDS011;41678;52.126;20.664;2023-07-31T00:57:18;5.47;;;1.85;;
55758;SDS011;41678;52.126;20.664;2023-07-31T01:02:38;5.68;;;1.85;;
55758;SDS011;41678;52.126;20.664;2023-07-31T01:08:07;4.80;;;1.67;;
55758;SDS011;41678;52.126;20.664;2023-07-31T01:13:40;5.93;;;1.90;;
55758;SDS011;41678;52.126;20.664;2023-07-31T01:19:00;4.82;;;1.63;;
55758;SDS011;41678;52.126;20.664;2023-07-31T01:24:20;5.57;;;1.75;;
55758;SDS011;41678;52.126;20.664;2023-07-31T01:35:29;4.35;;;1.58;;
55758;SDS011;41678;52.126;20.664;2023-07-31T01:40:52;5.38;;;1.63;;
55758;SDS011;41678;52.126;20.664;2023-07-31T01:46:13;7.32;;;2.00;;
55758;SDS011;41678;52.126;20.664;2023-07-31T01:51:33;5.97;;;1.63;;
55758;SDS011;41678;52.126;20.664;2023-07-31T01:56:55;4.30;;;1.50;;
55758;SDS011;41678;52.126;20.664;2023-07-31T02:02:15;8.43;;;2.50;;
55758;SDS011;41678;52.126;20.664;2023-07-31T02:07:35;5.20;;;1.90;;
55758;SDS011;41678;52.126;20.664;2023-07-31T02:12:55;5.07;;;2.00;;
55758;SDS011;41678;52.126;20.664;2023-07-31T02:18:14;13.18;;;2.25;;
55758;SDS011;41678;52.126;20.664;2023-07-31T02:23:33;5.88;;;2.10;;
55758;SDS011;41678;52.126;20.664;2023-07-31T02:28:53;5.05;;;1.92;;
55758;SDS011;41678;52.126;20.664;2023-07-31T02:34:12;7.03;;;2.42;;
55758;SDS011;41678;52.126;20.664;2023-07-31T02:39:32;5.65;;;2.35;;
55758;SDS011;41678;52.126;20.664;2023-07-31T02:44:51;6.72;;;2.00;;
55758;SDS011;41678;52.126;20.664;2023-07-31T02:50:15;6.07;;;2.10;;
55758;SDS011;41678;52.126;20.664;2023-07-31T02:55:34;10.68;;;2.60;;
55758;SDS011;41678;52.126;20.664;2023-07-31T03:00:53;7.85;;;2.20;;
55758;SDS011;41678;52.126;20.664;2023-07-31T03:06:13;5.63;;;2.05;;
55758;SDS011;41678;52.126;20.664;2023-07-31T03:11:32;6.45;;;2.60;;
55758;SDS011;41678;52.126;20.664;2023-07-31T03:16:52;8.02;;;2.05;;
55758;SDS011;41678;52.126;20.664;2023-07-31T03:22:11;6.03;;;2.13;;
55758;SDS011;41678;52.126;20.664;2023-07-31T03:27:31;6.00;;;2.05;;
55758;SDS011;41678;52.126;20.664;2023-07-31T03:32:51;8.18;;;2.38;;
55758;SDS011;41678;52.126;20.664;2023-07-31T03:38:10;7.97;;;2.80;;
55758;SDS011;41678;52.126;20.664;2023-07-31T03:43:30;6.88;;;2.20;;
55758;SDS011;41678;52.126;20.664;2023-07-31T03:48:50;8.40;;;2.93;;
55758;SDS011;41678;52.126;20.664;2023-07-31T03:54:10;8.18;;;1.95;;
55758;SDS011;41678;52.126;20.664;2023-07-31T03:59:30;7.18;;;2.30;;
55758;SDS011;41678;52.126;20.664;2023-07-31T04:04:49;10.18;;;2.38;;
55758;SDS011;41678;52.126;20.664;2023-07-31T04:10:09;7.63;;;2.28;;
55758;SDS011;41678;52.126;20.664;2023-07-31T04:15:29;5.80;;;1.77;;
55758;SDS011;41678;52.126;20.664;2023-07-31T04:20:48;10.95;;;2.35;;
55758;SDS011;41678;52.126;20.664;2023-07-31T04:26:08;5.97;;;2.17;;
55758;SDS011;41678;52.126;20.664;2023-07-31T04:31:27;9.60;;;2.33;;
55758;SDS011;41678;52.126;20.664;2023-07-31T04:36:47;8.20;;;2.33;;
55758;SDS011;41678;52.126;20.664;2023-07-31T04:42:06;6.72;;;2.47;;
55758;SDS011;41678;52.126;20.664;2023-07-31T04:47:26;8.52;;;2.03;;
55758;SDS011;41678;52.126;20.664;2023-07-31T04:52:45;5.50;;;2.17;;
55758;SDS011;41678;52.126;20.664;2023-07-31T04:58:05;12.23;;;2.50;;
55758;SDS011;41678;52.126;20.664;2023-07-31T05:03:25;9.23;;;2.30;;
55758;SDS011;41678;52.126;20.664;2023-07-31T05:08:45;9.93;;;2.75;;
55758;SDS011;41678;52.126;20.664;2023-07-31T05:14:04;5.97;;;2.05;;
55758;SDS011;41678;52.126;20.664;2023-07-31T05:19:24;7.88;;;2.47;;
55758;SDS011;41678;52.126;20.664;2023-07-31T05:24:44;7.13;;;2.20;;
55758;SDS011;41678;52.126;20.664;2023-07-31T05:30:04;8.15;;;2.05;;
55758;SDS011;41678;52.126;20.664;2023-07-31T05:35:25;6.43;;;2.40;;
55758;SDS011;41678;52.126;20.664;2023-07-31T05:40:44;8.85;;;1.95;;
55758;SDS011;41678;52.126;20.664;2023-07-31T05:46:04;8.15;;;2.08;;
55758;SDS011;41678;52.126;20.664;2023-07-31T05:51:24;10.10;;;2.33;;
55758;SDS011;41678;52.126;20.664;2023-07-31T05:56:43;6.85;;;2.13;;
55758;SDS011;41678;52.126;20.664;2023-07-31T06:02:03;6.43;;;2.60;;
55758;SDS011;41678;52.126;20.664;2023-07-31T06:07:23;9.13;;;2.38;;
55758;SDS011;41678;52.126;20.664;2023-07-31T06:12:43;9.30;;;2.60;;
55758;SDS011;41678;52.126;20.664;2023-07-31T06:18:02;9.38;;;2.10;;
55758;SDS011;41678;52.126;20.664;2023-07-31T06:23:22;13.15;;;2.60;;
55758;SDS011;41678;52.126;20.664;2023-07-31T06:28:42;9.07;;;2.45;;
55758;SDS011;41678;52.126;20.664;2023-07-31T06:34:02;12.35;;;2.53;;
55758;SDS011;41678;52.126;20.664;2023-07-31T06:39:22;14.07;;;2.30;;
55758;SDS011;41678;52.126;20.664;2023-07-31T06:44:42;7.15;;;2.08;;
55758;SDS011;41678;52.126;20.664;2023-07-31T06:50:01;13.18;;;3.15;;
55758;SDS011;41678;52.126;20.664;2023-07-31T06:55:22;6.00;;;2.20;;
55758;SDS011;41678;52.126;20.664;2023-07-31T07:00:42;7.78;;;2.00;;
55758;SDS011;41678;52.126;20.664;2023-07-31T07:12:34;10.75;;;2.55;;
55758;SDS011;41678;52.126;20.664;2023-07-31T07:17:53;8.23;;;2.22;;
55758;SDS011;41678;52.126;20.664;2023-07-31T07:23:17;11.00;;;2.35;;
55758;SDS011;41678;52.126;20.664;2023-07-31T07:28:37;7.55;;;2.75;;
55758;SDS011;41678;52.126;20.664;2023-07-31T07:33:57;9.95;;;2.60;;
55758;SDS011;41678;52.126;20.664;2023-07-31T07:39:16;16.70;;;2.63;;
55758;SDS011;41678;52.126;20.664;2023-07-31T07:44:35;10.60;;;2.80;;
55758;SDS011;41678;52.126;20.664;2023-07-31T07:49:55;8.13;;;2.20;;
55758;SDS011;41678;52.126;20.664;2023-07-31T07:55:14;11.93;;;2.38;;
55758;SDS011;41678;52.126;20.664;2023-07-31T08:00:34;7.40;;;2.40;;
55758;SDS011;41678;52.126;20.664;2023-07-31T08:05:57;10.13;;;2.28;;
55758;SDS011;41678;52.126;20.664;2023-07-31T08:11:18;6.32;;;2.08;;
55758;SDS011;41678;52.126;20.664;2023-07-31T08:16:37;7.22;;;2.28;;
55758;SDS011;41678;52.126;20.664;2023-07-31T08:21:57;9.27;;;2.35;;
55758;SDS011;41678;52.126;20.664;2023-07-31T08:27:17;9.38;;;2.10;;
55758;SDS011;41678;52.126;20.664;2023-07-31T08:32:36;9.80;;;2.30;;
55758;SDS011;41678;52.126;20.664;2023-07-31T08:37:56;6.75;;;2.15;;
55758;SDS011;41678;52.126;20.664;2023-07-31T08:43:15;6.90;;;1.90;;
55758;SDS011;41678;52.126;20.664;2023-07-31T08:48:35;5.45;;;1.90;;
55758;SDS011;41678;52.126;20.664;2023-07-31T08:53:56;4.50;;;1.40;;
55758;SDS011;41678;52.126;20.664;2023-07-31T08:59:17;5.10;;;1.55;;
55758;SDS011;41678;52.126;20.664;2023-07-31T09:04:38;6.13;;;2.00;;
55758;SDS011;41678;52.126;20.664;2023-07-31T09:09:58;8.98;;;1.92;;
55758;SDS011;41678;52.126;20.664;2023-07-31T09:15:18;14.35;;;2.35;;
55758;SDS011;41678;52.126;20.664;2023-07-31T09:20:38;8.43;;;2.00;;
55758;SDS011;41678;52.126;20.664;2023-07-31T09:25:57;5.90;;;1.80;;
55758;SDS011;41678;52.126;20.664;2023-07-31T09:31:17;6.03;;;1.95;;
55758;SDS011;41678;52.126;20.664;2023-07-31T09:37:01;12.35;;;3.47;;
55758;SDS011;41678;52.126;20.664;2023-07-31T09:42:26;11.27;;;2.05;;
55758;SDS011;41678;52.126;20.664;2023-07-31T09:47:48;5.82;;;1.75;;
55758;SDS011;41678;52.126;20.664;2023-07-31T09:53:08;15.63;;;1.90;;
55758;SDS011;41678;52.126;20.664;2023-07-31T09:58:32;6.35;;;1.52;;
55758;SDS011;41678;52.126;20.664;2023-07-31T10:03:53;7.13;;;1.77;;
55758;SDS011;41678;52.126;20.664;2023-07-31T10:09:14;4.97;;;1.15;;
55758;SDS011;41678;52.126;20.664;2023-07-31T10:14:37;7.55;;;1.38;;
55758;SDS011;41678;52.126;20.664;2023-07-31T10:19:59;6.35;;;1.23;;
55758;SDS011;41678;52.126;20.664;2023-07-31T10:25:23;8.90;;;1.95;;
55758;SDS011;41678;52.126;20.664;2023-07-31T10:30:45;7.07;;;1.58;;
55758;SDS011;41678;52.126;20.664;2023-07-31T10:36:18;3.15;;;0.88;;
55758;SDS011;41678;52.126;20.664;2023-07-31T10:41:39;4.75;;;1.20;;
55758;SDS011;41678;52.126;20.664;2023-07-31T10:47:00;3.55;;;1.10;;
55758;SDS011;41678;52.126;20.664;2023-07-31T10:52:20;4.40;;;1.27;;
55758;SDS011;41678;52.126;20.664;2023-07-31T10:57:47;5.47;;;1.48;;
55758;SDS011;41678;52.126;20.664;2023-07-31T11:03:07;13.40;;;1.40;;
55758;SDS011;41678;52.126;20.664;2023-07-31T11:08:32;5.70;;;1.30;;
55758;SDS011;41678;52.126;20.664;2023-07-31T11:13:53;6.15;;;1.52;;
55758;SDS011;41678;52.126;20.664;2023-07-31T11:19:13;6.97;;;1.65;;
55758;SDS011;41678;52.126;20.664;2023-07-31T11:24:33;8.15;;;1.42;;
55758;SDS011;41678;52.126;20.664;2023-07-31T11:29:59;4.03;;;1.33;;
55758;SDS011;41678;52.126;20.664;2023-07-31T11:35:20;8.32;;;1.70;;
55758;SDS011;41678;52.126;20.664;2023-07-31T11:40:43;8.38;;;1.60;;
55758;SDS011;41678;52.126;20.664;2023-07-31T11:46:03;7.53;;;1.92;;
55758;SDS011;41678;52.126;20.664;2023-07-31T11:51:24;7.40;;;1.98;;
55758;SDS011;41678;52.126;20.664;2023-07-31T11:56:44;10.73;;;1.55;;
55758;SDS011;41678;52.126;20.664;2023-07-31T12:02:04;7.03;;;1.20;;
55758;SDS011;41678;52.126;20.664;2023-07-31T12:07:24;5.35;;;1.50;;
55758;SDS011;41678;52.126;20.664;2023-07-31T12:12:44;8.02;;;1.60;;
55758;SDS011;41678;52.126;20.664;2023-07-31T12:18:15;9.13;;;1.37;;
55758;SDS011;41678;52.126;20.664;2023-07-31T12:23:38;8.10;;;1.38;;
55758;SDS011;41678;52.126;20.664;2023-07-31T12:28:58;6.40;;;1.20;;
55758;SDS011;41678;52.126;20.664;2023-07-31T12:34:18;10.20;;;1.40;;
55758;SDS011;41678;52.126;20.664;2023-07-31T12:39:40;8.35;;;1.98;;
55758;SDS011;41678;52.126;20.664;2023-07-31T12:44:59;6.10;;;1.40;;
55758;SDS011;41678;52.126;20.664;2023-07-31T12:50:19;9.63;;;1.73;;
55758;SDS011;41678;52.126;20.664;2023-07-31T12:55:38;11.60;;;1.70;;
55758;SDS011;41678;52.126;20.664;2023-07-31T13:00:57;7.70;;;1.95;;
55758;SDS011;41678;52.126;20.664;2023-07-31T13:06:17;10.82;;;1.40;;
55758;SDS011;41678;52.126;20.664;2023-07-31T13:11:36;4.22;;;1.40;;
55758;SDS011;41678;52.126;20.664;2023-07-31T13:16:57;6.70;;;1.27;;
55758;SDS011;41678;52.126;20.664;2023-07-31T13:22:17;6.47;;;1.30;;
55758;SDS011;41678;52.126;20.664;2023-07-31T13:27:37;5.63;;;1.33;;
55758;SDS011;41678;52.126;20.664;2023-07-31T13:32:56;8.02;;;1.75;;
55758;SDS011;41678;52.126;20.664;2023-07-31T13:38:15;9.23;;;1.65;;
55758;SDS011;41678;52.126;20.664;2023-07-31T13:43:35;9.95;;;1.80;;
55758;SDS011;41678;52.126;20.664;2023-07-31T13:48:56;8.48;;;1.85;;
55758;SDS011;41678;52.126;20.664;2023-07-31T13:54:15;5.70;;;1.70;;
55758;SDS011;41678;52.126;20.664;2023-07-31T13:59:35;9.03;;;1.70;;
55758;SDS011;41678;52.126;20.664;2023-07-31T14:04:55;5.85;;;1.63;;
55758;SDS011;41678;52.126;20.664;2023-07-31T14:10:15;7.97;;;1.95;;
55758;SDS011;41678;52.126;20.664;2023-07-31T14:15:34;10.73;;;2.05;;
55758;SDS011;41678;52.126;20.664;2023-07-31T14:20:54;7.25;;;1.70;;
55758;SDS011;41678;52.126;20.664;2023-07-31T14:26:14;7.43;;;1.50;;
55758;SDS011;41678;52.126;20.664;2023-07-31T14:31:33;5.90;;;1.77;;
55758;SDS011;41678;52.126;20.664;2023-07-31T14:36:53;12.90;;;1.80;;
55758;SDS011;41678;52.126;20.664;2023-07-31T14:42:13;9.93;;;2.10;;
55758;SDS011;41678;52.126;20.664;2023-07-31T14:47:33;9.82;;;1.65;;
55758;SDS011;41678;52.126;20.664;2023-07-31T14:52:53;11.15;;;1.85;;
55758;SDS011;41678;52.126;20.664;2023-07-31T14:58:12;13.48;;;2.03;;
55758;SDS011;41678;52.126;20.664;2023-07-31T15:03:33;7.72;;;1.40;;
55758;SDS011;41678;52.126;20.664;2023-07-31T15:08:53;6.15;;;1.50;;
55758;SDS011;41678;52.126;20.664;2023-07-31T15:14:13;7.35;;;1.60;;
55758;SDS011;41678;52.126;20.664;2023-07-31T15:19:32;11.35;;;1.40;;
55758;SDS011;41678;52.126;20.664;2023-07-31T15:24:53;4.90;;;1.70;;
55758;SDS011;41678;52.126;20.664;2023-07-31T15:30:13;9.30;;;1.67;;
55758;SDS011;41678;52.126;20.664;2023-07-31T15:35:32;5.13;;;1.50;;
55758;SDS011;41678;52.126;20.664;2023-07-31T15:40:52;6.78;;;1.52;;
55758;SDS011;41678;52.126;20.664;2023-07-31T15:46:11;8.80;;;1.42;;
55758;SDS011;41678;52.126;20.664;2023-07-31T15:51:32;13.60;;;1.60;;
55758;SDS011;41678;52.126;20.664;2023-07-31T15:56:52;6.93;;;1.27;;
55758;SDS011;41678;52.126;20.664;2023-07-31T16:02:12;7.22;;;1.60;;
55758;SDS011;41678;52.126;20.664;2023-07-31T16:07:31;14.25;;;1.88;;
55758;SDS011;41678;52.126;20.664;2023-07-31T16:12:51;13.98;;;1.63;;
55758;SDS011;41678;52.126;20.664;2023-07-31T16:18:11;11.90;;;1.88;;
55758;SDS011;41678;52.126;20.664;2023-07-31T16:23:30;7.00;;;1.58;;
55758;SDS011;41678;52.126;20.664;2023-07-31T16:28:49;11.77;;;1.63;;
55758;SDS011;41678;52.126;20.664;2023-07-31T16:34:09;13.07;;;1.83;;
55758;SDS011;41678;52.126;20.664;2023-07-31T16:39:28;7.43;;;1.83;;
55758;SDS011;41678;52.126;20.664;2023-07-31T16:44:54;11.40;;;1.80;;
55758;SDS011;41678;52.126;20.664;2023-07-31T16:50:14;4.88;;;1.50;;
55758;SDS011;41678;52.126;20.664;2023-07-31T16:55:35;5.80;;;1.70;;
55758;SDS011;41678;52.126;20.664;2023-07-31T17:00:55;5.70;;;1.60;;
55758;SDS011;41678;52.126;20.664;2023-07-31T17:06:17;10.07;;;1.60;;
55758;SDS011;41678;52.126;20.664;2023-07-31T17:11:37;8.70;;;2.13;;
55758;SDS011;41678;52.126;20.664;2023-07-31T17:16:57;7.32;;;1.95;;
55758;SDS011;41678;52.126;20.664;2023-07-31T17:22:16;9.18;;;1.85;;
55758;SDS011;41678;52.126;20.664;2023-07-31T17:27:36;16.88;;;2.40;;
55758;SDS011;41678;52.126;20.664;2023-07-31T17:32:55;10.68;;;2.55;;
55758;SDS011;41678;52.126;20.664;2023-07-31T17:38:14;9.88;;;1.63;;
55758;SDS011;41678;52.126;20.664;2023-07-31T17:43:35;6.33;;;1.70;;
55758;SDS011;41678;52.126;20.664;2023-07-31T17:48:54;6.47;;;2.30;;
55758;SDS011;41678;52.126;20.664;2023-07-31T17:54:14;8.02;;;2.33;;
55758;SDS011;41678;52.126;20.664;2023-07-31T17:59:33;9.77;;;1.70;;
55758;SDS011;41678;52.126;20.664;2023-07-31T18:04:53;7.47;;;1.60;;
55758;SDS011;41678;52.126;20.664;2023-07-31T18:10:13;6.47;;;1.90;;
55758;SDS011;41678;52.126;20.664;2023-07-31T18:15:32;7.10;;;1.80;;
55758;SDS011;41678;52.126;20.664;2023-07-31T18:20:52;11.70;;;2.08;;
55758;SDS011;41678;52.126;20.664;2023-07-31T18:26:11;7.78;;;1.65;;
55758;SDS011;41678;52.126;20.664;2023-07-31T18:31:31;6.38;;;1.80;;
55758;SDS011;41678;52.126;20.664;2023-07-31T18:36:51;12.10;;;1.90;;
55758;SDS011;41678;52.126;20.664;2023-07-31T18:42:10;7.95;;;1.98;;
55758;SDS011;41678;52.126;20.664;2023-07-31T18:47:29;5.80;;;1.70;;
55758;SDS011;41678;52.126;20.664;2023-07-31T18:52:49;7.88;;;2.47;;
55758;SDS011;41678;52.126;20.664;2023-07-31T18:58:09;6.15;;;2.00;;
55758;SDS011;41678;52.126;20.664;2023-07-31T19:03:29;8.88;;;2.13;;
55758;SDS011;41678;52.126;20.664;2023-07-31T19:08:48;5.22;;;1.73;;
55758;SDS011;41678;52.126;20.664;2023-07-31T19:14:08;10.57;;;2.55;;
55758;SDS011;41678;52.126;20.664;2023-07-31T19:19:28;10.68;;;2.30;;
55758;SDS011;41678;52.126;20.664;2023-07-31T19:24:48;11.35;;;2.67;;
55758;SDS011;41678;52.126;20.664;2023-07-31T19:30:07;7.70;;;2.45;;
55758;SDS011;41678;52.126;20.664;2023-07-31T19:35:27;11.52;;;3.58;;
55758;SDS011;41678;52.126;20.664;2023-07-31T19:40:47;10.50;;;3.08;;
55758;SDS011;41678;52.126;20.664;2023-07-31T19:46:07;7.38;;;2.70;;
55758;SDS011;41678;52.126;20.664;2023-07-31T19:51:47;7.20;;;2.33;;
55758;SDS011;41678;52.126;20.664;2023-07-31T19:57:07;11.35;;;2.63;;
55758;SDS011;41678;52.126;20.664;2023-07-31T20:02:26;8.02;;;2.33;;
55758;SDS011;41678;52.126;20.664;2023-07-31T20:07:46;12.38;;;2.78;;
55758;SDS011;41678;52.126;20.664;2023-07-31T20:13:05;9.73;;;2.70;;
55758;SDS011;41678;52.126;20.664;2023-07-31T20:18:25;7.30;;;2.20;;
55758;SDS011;41678;52.126;20.664;2023-07-31T20:23:47;11.55;;;2.88;;
55758;SDS011;41678;52.126;20.664;2023-07-31T20:29:07;8.45;;;2.67;;
55758;SDS011;41678;52.126;20.664;2023-07-31T20:34:27;6.47;;;2.42;;
55758;SDS011;41678;52.126;20.664;2023-07-31T20:39:46;9.05;;;2.83;;
55758;SDS011;41678;52.126;20.664;2023-07-31T20:45:06;9.55;;;3.30;;
55758;SDS011;41678;52.126;20.664;2023-07-31T20:50:26;10.50;;;3.45;;
55758;SDS011;41678;52.126;20.664;2023-07-31T20:55:46;9.77;;;3.10;;
55758;SDS011;41678;52.126;20.664;2023-07-31T21:01:06;9.13;;;3.10;;
55758;SDS011;41678;52.126;20.664;2023-07-31T21:06:26;7.30;;;2.50;;
55758;SDS011;41678;52.126;20.664;2023-07-31T21:11:45;9.85;;;2.90;;
55758;SDS011;41678;52.126;20.664;2023-07-31T21:17:05;13.20;;;3.13;;
55758;SDS011;41678;52.126;20.664;2023-07-31T21:22:24;10.57;;;3.22;;
55758;SDS011;41678;52.126;20.664;2023-07-31T21:27:44;4.82;;;2.05;;
55758;SDS011;41678;52.126;20.664;2023-07-31T21:33:04;6.05;;;2.40;;
55758;SDS011;41678;52.126;20.664;2023-07-31T21:38:24;9.52;;;2.55;;
55758;SDS011;41678;52.126;20.664;2023-07-31T21:43:43;9.38;;;2.50;;
55758;SDS011;41678;52.126;20.664;2023-07-31T21:49:03;7.88;;;2.88;;
55758;SDS011;41678;52.126;20.664;2023-07-31T21:54:22;10.20;;;3.55;;
55758;SDS011;41678;52.126;20.664;2023-07-31T21:59:42;7.82;;;2.38;;
55758;SDS011;41678;52.126;20.664;2023-07-31T22:05:01;9.55;;;2.22;;
55758;SDS011;41678;52.126;20.664;2023-07-31T22:10:21;8.53;;;2.67;;
55758;SDS011;41678;52.126;20.664;2023-07-31T22:15:41;8.40;;;2.17;;
55758;SDS011;41678;52.126;20.664;2023-07-31T22:21:01;9.23;;;2.78;;
55758;SDS011;41678;52.126;20.664;2023-07-31T22:26:21;6.55;;;2.25;;
55758;SDS011;41678;52.126;20.664;2023-07-31T22:31:40;6.05;;;2.45;;
55758;SDS011;41678;52.126;20.664;2023-07-31T22:37:00;12.07;;;2.70;;
55758;SDS011;41678;52.126;20.664;2023-07-31T22:42:19;8.02;;;2.88;;
55758;SDS011;41678;52.126;20.664;2023-07-31T22:47:39;9.07;;;2.85;;
55758;SDS011;41678;52.126;20.664;2023-07-31T22:52:59;10.35;;;2.47;;
55758;SDS011;41678;52.126;20.664;2023-07-31T22:58:19;6.97;;;2.25;;
55758;SDS011;41678;52.126;20.664;2023-07-31T23:03:39;7.65;;;3.40;;
55758;SDS011;41678;52.126;20.664;2023-07-31T23:08:58;7.53;;;2.80;;
55758;SDS011;41678;52.126;20.664;2023-07-31T23:14:18;6.47;;;2.70;;
55758;SDS011;41678;52.126;20.664;2023-07-31T23:19:38;11.43;;;2.47;;
55758;SDS011;41678;52.126;20.664;2023-07-31T23:24:58;6.25;;;2.33;;
55758;SDS011;41678;52.126;20.664;2023-07-31T23:30:17;7.05;;;2.63;;
55758;SDS011;41678;52.126;20.664;2023-07-31T23:35:37;7.30;;;2.97;;
55758;SDS011;41678;52.126;20.664;2023-07-31T23:40:56;6.47;;;3.05;;
55758;SDS011;41678;52.126;20.664;2023-07-31T23:46:15;8.30;;;2.60;;
55758;SDS011;41678;52.126;20.664;2023-07-31T23:51:35;8.30;;;3.08;;
55758;SDS011;41678;52.126;20.664;2023-07-31T23:56:54;11.57;;;2.80;;
